createdAt,value
2023-01-07T00:01:43.943Z,1.17
2023-01-07T00:04:14.141Z,1.00
2023-01-07T00:06:43.855Z,1.00
2023-01-07T00:09:16.685Z,1.00
2023-01-07T00:11:46.718Z,1.00
2023-01-07T00:14:15.637Z,1.10
2023-01-07T00:16:43.751Z,1.07
2023-01-07T00:19:14.525Z,1.40
2023-01-07T00:21:42.973Z,0.90
2023-01-07T00:24:12.064Z,1.00
2023-01-07T00:26:41.222Z,0.90
2023-01-07T00:29:10.780Z,0.90
2023-01-07T00:31:40.440Z,1.20
2023-01-07T00:34:09.298Z,0.90
2023-01-07T00:36:43.143Z,1.47
2023-01-07T00:39:15.022Z,1.00
2023-01-07T00:42:05.319Z,0.80
2023-01-07T00:44:35.210Z,1.00
2023-01-07T00:47:03.101Z,1.10
2023-01-07T00:49:31.087Z,1.03
2023-01-07T00:51:59.096Z,0.97
2023-01-07T00:54:26.944Z,1.10
2023-01-07T00:56:54.785Z,1.10
2023-01-07T00:59:22.638Z,0.93
2023-01-07T01:01:51.962Z,1.00
2023-01-07T01:04:20.068Z,1.10
2023-01-07T01:06:49.020Z,1.00
2023-01-07T01:09:16.853Z,1.10
2023-01-07T01:11:44.715Z,1.30
2023-01-07T01:14:12.761Z,0.90
2023-01-07T01:16:40.723Z,0.93
2023-01-07T01:19:09.968Z,0.80
2023-01-07T01:21:37.792Z,1.17
2023-01-07T01:24:05.922Z,1.13
2023-01-07T01:26:33.848Z,1.00
2023-01-07T01:29:01.713Z,1.07
2023-01-07T01:31:29.666Z,1.00
2023-01-07T01:33:59.789Z,1.00
2023-01-07T01:36:29.054Z,1.00
2023-01-07T01:38:57.422Z,0.97
2023-01-07T01:41:25.324Z,1.10
2023-01-07T01:43:53.500Z,0.97
2023-01-07T01:46:28.560Z,0.80
2023-01-07T01:49:01.115Z,1.20
2023-01-07T01:51:34.654Z,1.03
2023-01-07T01:54:04.733Z,0.80
2023-01-07T01:56:36.711Z,1.20
2023-01-07T01:59:07.019Z,1.10
2023-01-07T02:01:36.736Z,1.30
2023-01-07T02:04:09.606Z,1.03
2023-01-07T02:06:44.865Z,1.40
2023-01-07T02:09:12.960Z,1.00
2023-01-07T02:11:51.034Z,1.20
2023-01-07T02:14:32.442Z,1.00
2023-01-07T02:17:05.717Z,0.80
2023-01-07T02:20:11.873Z,1.20
2023-01-07T02:23:08.567Z,0.80
2023-01-07T02:26:21.022Z,0.90
2023-01-07T02:29:18.328Z,0.80
2023-01-07T02:32:16.382Z,0.90
2023-01-07T02:34:52.046Z,1.07
2023-01-07T02:37:28.865Z,1.00
2023-01-07T02:40:02.144Z,0.90
2023-01-07T02:42:38.814Z,0.90
2023-01-07T02:45:12.759Z,0.90
2023-01-07T02:47:48.447Z,0.90
2023-01-07T02:50:16.333Z,0.90
2023-01-07T02:52:44.361Z,1.00
2023-01-07T02:55:15.098Z,1.20
2023-01-07T02:58:19.507Z,1.00
2023-01-07T03:01:02.734Z,0.90
2023-01-07T03:03:48.114Z,1.03
2023-01-07T03:06:31.022Z,1.10
2023-01-07T03:09:08.938Z,1.40
2023-01-07T03:11:46.558Z,0.90
2023-01-07T03:14:19.378Z,0.83
2023-01-07T03:16:54.411Z,0.97
2023-01-07T03:19:29.663Z,1.10
2023-01-07T03:21:58.428Z,1.20
2023-01-07T03:24:29.593Z,0.90
2023-01-07T03:27:00.878Z,1.10
2023-01-07T03:29:31.957Z,1.03
2023-01-07T03:32:05.718Z,1.00
2023-01-07T03:34:38.064Z,1.00
2023-01-07T03:37:09.597Z,1.00
2023-01-07T03:39:39.920Z,1.10
2023-01-07T03:42:26.276Z,1.10
2023-01-07T03:44:54.233Z,1.07
2023-01-07T03:47:22.945Z,0.90
2023-01-07T03:49:52.202Z,1.20
2023-01-07T03:52:20.127Z,1.07
2023-01-07T03:54:47.978Z,0.90
2023-01-07T03:57:15.865Z,1.00
2023-01-07T03:59:43.745Z,1.03
2023-01-07T04:02:11.987Z,1.20
2023-01-07T04:04:40.093Z,0.83
2023-01-07T04:07:09.299Z,0.90
2023-01-07T04:09:37.127Z,1.20
2023-01-07T04:12:05.144Z,1.23
2023-01-07T04:14:33.068Z,1.07
2023-01-07T04:17:01.213Z,1.00
2023-01-07T04:19:29.106Z,1.00
2023-01-07T04:21:57.003Z,1.20
2023-01-07T04:24:26.235Z,1.00
2023-01-07T04:26:54.140Z,0.90
2023-01-07T04:29:21.976Z,1.03
2023-01-07T04:31:50.646Z,1.13
2023-01-07T04:34:18.505Z,1.07
2023-01-07T04:36:46.403Z,1.07
2023-01-07T04:39:14.384Z,1.03
2023-01-07T04:41:43.625Z,1.10
2023-01-07T04:44:11.479Z,1.03
2023-01-07T04:46:39.347Z,1.20
2023-01-07T04:49:07.359Z,1.07
2023-01-07T04:51:35.242Z,0.97
2023-01-07T04:54:03.119Z,1.00
2023-01-07T04:56:30.998Z,1.20
2023-01-07T04:59:00.203Z,1.30
2023-01-07T05:01:31.011Z,1.10
2023-01-07T05:03:59.291Z,1.10
2023-01-07T05:06:27.314Z,0.90
2023-01-07T05:08:55.219Z,1.20
2023-01-07T05:11:23.091Z,1.17
2023-01-07T05:13:51.266Z,1.00
2023-01-07T05:16:20.505Z,1.17
2023-01-07T05:18:48.432Z,1.23
2023-01-07T05:21:17.939Z,1.10
2023-01-07T05:23:45.839Z,1.00
2023-01-07T05:26:13.713Z,1.27
2023-01-07T05:28:41.569Z,1.13
2023-01-07T05:31:09.603Z,1.10
2023-01-07T05:33:38.881Z,1.20
2023-01-07T05:36:07.182Z,1.37
2023-01-07T05:38:35.049Z,0.90
2023-01-07T05:41:02.962Z,1.13
2023-01-07T05:43:30.913Z,1.13
2023-01-07T05:45:59.172Z,1.00
2023-01-07T05:48:27.247Z,1.10
2023-01-07T05:50:56.642Z,0.90
2023-01-07T05:53:24.512Z,1.30
2023-01-07T05:55:57.078Z,1.50
2023-01-07T05:58:25.416Z,1.00
2023-01-07T06:00:53.578Z,1.20
2023-01-07T06:03:22.150Z,1.13
2023-01-07T06:05:50.100Z,1.00
2023-01-07T06:08:19.343Z,1.30
2023-01-07T06:10:47.390Z,1.10
2023-01-07T06:13:15.231Z,1.20
2023-01-07T06:15:43.136Z,1.10
2023-01-07T06:18:11.029Z,1.30
2023-01-07T06:20:38.918Z,1.00
2023-01-07T06:23:06.779Z,1.80
2023-01-07T06:25:35.976Z,1.10
2023-01-07T06:28:03.816Z,1.10
2023-01-07T06:30:31.663Z,1.37
2023-01-07T06:33:00.273Z,1.30
2023-01-07T06:35:28.212Z,1.30
2023-01-07T06:37:56.043Z,1.17
2023-01-07T06:40:24.093Z,1.37
2023-01-07T06:42:53.457Z,1.07
2023-01-07T06:45:21.515Z,1.20
2023-01-07T06:47:49.390Z,1.60
2023-01-07T06:50:18.343Z,1.10
2023-01-07T06:52:46.208Z,1.20
2023-01-07T06:55:14.096Z,0.97
2023-01-07T06:57:42.005Z,1.13
2023-01-07T07:00:12.714Z,1.50
2023-01-07T07:02:40.938Z,1.00
2023-01-07T07:05:09.358Z,1.37
2023-01-07T07:07:37.221Z,0.90
2023-01-07T07:10:07.467Z,1.00
2023-01-07T07:12:36.150Z,1.00
2023-01-07T07:15:04.470Z,1.10
2023-01-07T07:17:33.705Z,1.10
2023-01-07T07:20:01.608Z,1.03
2023-01-07T07:22:29.696Z,1.10
2023-01-07T07:24:57.571Z,1.00
2023-01-07T07:27:25.397Z,1.20
2023-01-07T07:29:53.289Z,0.90
2023-01-07T07:32:21.137Z,1.00
2023-01-07T07:34:50.363Z,1.10
2023-01-07T07:37:18.205Z,1.20
2023-01-07T07:39:46.047Z,1.00
2023-01-07T07:42:13.931Z,1.10
2023-01-07T07:44:41.773Z,1.10
2023-01-07T07:47:11.171Z,1.10
2023-01-07T07:49:39.017Z,0.83
2023-01-07T07:52:08.245Z,1.00
2023-01-07T07:54:36.140Z,1.27
2023-01-07T07:57:04.212Z,1.00
2023-01-07T07:59:32.104Z,1.00
2023-01-07T08:01:59.983Z,1.13
2023-01-07T08:04:28.857Z,0.97
2023-01-07T08:06:56.925Z,1.00
2023-01-07T08:09:26.160Z,1.03
2023-01-07T08:11:53.995Z,0.87
2023-01-07T08:14:21.997Z,1.10
2023-01-07T08:16:49.875Z,0.80
2023-01-07T08:19:17.732Z,0.93
2023-01-07T08:21:45.573Z,0.90
2023-01-07T08:24:13.499Z,0.90
2023-01-07T08:26:42.928Z,0.97
2023-01-07T08:29:10.820Z,0.80
2023-01-07T08:31:38.725Z,1.10
2023-01-07T08:34:06.809Z,1.10
2023-01-07T08:36:34.776Z,1.03
2023-01-07T08:39:02.635Z,0.87
2023-01-07T08:41:30.834Z,0.90
2023-01-07T08:44:00.086Z,1.10
2023-01-07T08:46:27.996Z,0.90
2023-01-07T08:48:55.910Z,0.90
2023-01-07T08:51:23.821Z,0.90
2023-01-07T08:53:51.730Z,0.93
2023-01-07T08:56:19.646Z,1.00
2023-01-07T08:58:48.518Z,1.07
2023-01-07T09:01:17.967Z,0.90
2023-01-07T09:03:45.956Z,0.97
2023-01-07T09:06:13.853Z,0.90
2023-01-07T09:08:41.783Z,0.90
2023-01-07T09:11:09.763Z,1.00
2023-01-07T09:13:37.603Z,1.00
2023-01-07T09:16:06.153Z,0.87
2023-01-07T09:18:35.531Z,0.93
2023-01-07T09:21:03.433Z,0.87
2023-01-07T09:23:32.383Z,1.00
2023-01-07T09:26:00.221Z,0.80
2023-01-07T09:28:28.189Z,0.83
2023-01-07T09:30:56.989Z,0.90
2023-01-07T09:33:25.122Z,1.10
2023-01-07T09:35:54.335Z,0.87
2023-01-07T09:38:22.178Z,1.00
2023-01-07T09:40:50.804Z,1.10
2023-01-07T09:43:25.112Z,0.83
2023-01-07T09:45:55.845Z,0.80
2023-01-07T09:48:30.724Z,0.90
2023-01-07T09:51:04.727Z,1.00
2023-01-07T09:53:36.904Z,1.07
2023-01-07T09:56:11.225Z,0.90
2023-01-07T09:58:43.823Z,1.20
2023-01-07T10:01:24.613Z,0.70
2023-01-07T10:04:02.014Z,1.00
2023-01-07T10:06:43.736Z,0.90
2023-01-07T10:09:23.683Z,0.97
2023-01-07T10:12:03.014Z,1.10
2023-01-07T10:15:14.987Z,0.90
2023-01-07T10:17:57.800Z,1.10
2023-01-07T10:20:33.074Z,1.00
2023-01-07T10:23:08.864Z,0.80
2023-01-07T10:25:40.981Z,1.07
2023-01-07T10:28:15.060Z,0.80
2023-01-07T10:30:46.097Z,0.97
2023-01-07T10:33:20.348Z,0.70
2023-01-07T10:35:50.041Z,1.00
2023-01-07T10:38:21.111Z,0.90
2023-01-07T10:40:54.323Z,1.00
2023-01-07T10:43:35.747Z,1.13
2023-01-07T10:46:19.877Z,0.97
2023-01-07T10:49:03.020Z,1.17
2023-01-07T10:51:46.022Z,0.80
2023-01-07T10:54:45.454Z,1.00
2023-01-07T10:57:17.721Z,0.73
2023-01-07T10:59:50.512Z,0.73
2023-01-07T11:02:21.158Z,1.20
2023-01-07T11:04:49.240Z,0.80
2023-01-07T11:07:29.204Z,1.00
2023-01-07T11:10:04.180Z,0.93
2023-01-07T11:12:38.146Z,0.90
2023-01-07T11:15:09.725Z,1.00
2023-01-07T11:17:40.869Z,0.90
2023-01-07T11:20:09.696Z,1.00
2023-01-07T11:22:39.501Z,1.17
2023-01-07T11:25:28.145Z,0.77
2023-01-07T11:28:04.239Z,0.80
2023-01-07T11:30:34.107Z,1.00
2023-01-07T11:33:05.097Z,1.00
2023-01-07T11:35:33.304Z,0.90
2023-01-07T11:38:01.819Z,0.93
2023-01-07T11:40:33.164Z,1.20
2023-01-07T11:43:02.435Z,0.70
2023-01-07T11:45:33.833Z,1.10
2023-01-07T11:48:09.020Z,0.90
2023-01-07T11:50:39.106Z,0.70
2023-01-07T11:53:23.288Z,0.80
2023-01-07T11:56:00.537Z,0.80
2023-01-07T11:58:31.257Z,0.90
2023-01-07T12:01:14.229Z,0.90
2023-01-07T12:03:44.109Z,0.83
2023-01-07T12:06:19.656Z,0.80
2023-01-07T12:08:56.868Z,0.80
2023-01-07T12:11:32.051Z,0.80
2023-01-07T12:14:07.929Z,1.00
2023-01-07T12:16:37.179Z,0.90
2023-01-07T12:19:18.443Z,0.80
2023-01-07T12:22:03.001Z,0.90
2023-01-07T12:25:09.919Z,0.80
2023-01-07T12:27:49.114Z,0.77
2023-01-07T12:30:36.013Z,0.83
2023-01-07T12:33:15.148Z,0.80
2023-01-07T12:35:45.249Z,0.80
2023-01-07T12:38:18.095Z,0.80
2023-01-07T12:40:49.788Z,1.10
2023-01-07T12:43:26.080Z,0.90
2023-01-07T12:45:57.138Z,0.83
2023-01-07T12:48:30.651Z,0.93
2023-01-07T12:51:03.647Z,0.80
2023-01-07T12:53:37.653Z,1.00
2023-01-07T12:56:12.412Z,0.83
2023-01-07T12:58:51.314Z,0.90
2023-01-07T13:01:28.790Z,0.87
2023-01-07T13:04:07.652Z,0.90
2023-01-07T13:06:45.648Z,0.87
2023-01-07T13:09:22.073Z,0.67
2023-01-07T13:12:40.712Z,1.20
2023-01-07T13:15:05.034Z,0.90
2023-01-07T13:17:33.311Z,1.10
2023-01-07T13:20:03.890Z,0.80
2023-01-07T13:22:37.409Z,0.80
2023-01-07T13:25:19.048Z,0.90
2023-01-07T13:28:16.349Z,0.87
2023-01-07T13:30:51.963Z,0.73
2023-01-07T13:33:26.602Z,0.80
2023-01-07T13:36:15.333Z,1.10
2023-01-07T13:39:05.069Z,0.90
2023-01-07T13:41:47.843Z,0.80
2023-01-07T13:44:55.005Z,0.90
2023-01-07T13:47:27.012Z,0.80
2023-01-07T13:49:57.649Z,0.80
2023-01-07T13:52:30.773Z,0.80
2023-01-07T13:55:01.283Z,0.80
2023-01-07T13:57:45.907Z,0.83
2023-01-07T14:01:02.229Z,0.80
2023-01-07T14:03:36.046Z,0.90
2023-01-07T14:06:43.426Z,1.10
2023-01-07T14:09:39.134Z,1.17
2023-01-07T14:12:46.445Z,0.73
2023-01-07T14:15:44.174Z,0.90
2023-01-07T14:19:00.148Z,0.70
2023-01-07T14:21:58.188Z,0.80
2023-01-07T14:24:46.177Z,0.93
2023-01-07T14:27:41.615Z,0.80
2023-01-07T14:30:20.466Z,0.83
2023-01-07T14:32:57.557Z,1.00
2023-01-07T14:35:32.918Z,1.07
2023-01-07T14:38:02.630Z,0.80
2023-01-07T14:41:09.530Z,0.80
2023-01-07T14:44:02.999Z,0.80
2023-01-07T14:46:49.591Z,0.73
2023-01-07T14:50:03.021Z,0.90
2023-01-07T14:53:01.018Z,0.77
2023-01-07T14:55:57.859Z,0.90
2023-01-07T14:59:02.923Z,0.80
2023-01-07T15:01:43.977Z,0.90
2023-01-07T15:04:38.360Z,0.73
2023-01-07T15:07:14.384Z,0.90
2023-01-07T15:10:03.414Z,0.83
2023-01-07T15:12:53.663Z,0.80
2023-01-07T15:15:42.571Z,0.87
2023-01-07T15:18:11.649Z,1.17
2023-01-07T15:20:50.277Z,1.03
2023-01-07T15:23:25.986Z,0.83
2023-01-07T15:26:02.219Z,0.90
2023-01-07T15:28:40.867Z,0.80
2023-01-07T15:31:16.553Z,0.90
2023-01-07T15:34:07.229Z,1.00
2023-01-07T15:36:39.056Z,0.90
2023-01-07T15:39:07.213Z,1.27
2023-01-07T15:41:37.494Z,0.90
2023-01-07T15:44:15.126Z,1.17
2023-01-07T15:46:43.093Z,0.87
2023-01-07T15:49:18.701Z,1.07
2023-01-07T15:51:48.929Z,1.20
2023-01-07T15:54:31.791Z,1.20
2023-01-07T15:57:03.871Z,1.20
2023-01-07T15:59:36.010Z,1.43
2023-01-07T16:02:15.807Z,1.10
2023-01-07T16:04:45.252Z,0.90
2023-01-07T16:07:24.938Z,1.23
2023-01-07T16:09:53.528Z,1.37
2023-01-07T16:12:28.484Z,1.17
2023-01-07T16:14:58.069Z,1.30
2023-01-07T16:17:27.249Z,1.00
2023-01-07T16:20:10.910Z,1.17
2023-01-07T16:22:42.665Z,1.43
2023-01-07T16:25:17.550Z,2.67
2023-01-07T16:27:45.961Z,1.67
2023-01-07T16:30:16.608Z,1.30
2023-01-07T16:32:45.388Z,1.73
2023-01-07T16:35:21.624Z,1.40
2023-01-07T16:37:50.355Z,1.10
2023-01-07T16:40:22.972Z,1.50
2023-01-07T16:42:51.061Z,1.40
2023-01-07T16:45:26.522Z,1.83
2023-01-07T16:48:03.643Z,1.20
2023-01-07T16:50:38.429Z,1.30
2023-01-07T16:53:25.001Z,2.07
2023-01-07T16:55:55.218Z,1.43
2023-01-07T16:58:29.951Z,1.30
2023-01-07T17:01:02.798Z,1.50
2023-01-07T17:03:36.032Z,1.30
2023-01-07T17:06:07.512Z,1.37
2023-01-07T17:08:36.481Z,1.53
2023-01-07T17:11:09.177Z,1.27
2023-01-07T17:13:39.553Z,1.43
2023-01-07T17:16:26.319Z,1.87
2023-01-07T17:18:55.503Z,1.30
2023-01-07T17:21:41.526Z,1.87
2023-01-07T17:24:47.506Z,1.50
2023-01-07T17:27:25.292Z,2.00
2023-01-07T17:29:53.560Z,1.40
2023-01-07T17:32:24.351Z,1.70
2023-01-07T17:34:52.323Z,1.20
2023-01-07T17:37:20.214Z,1.50
2023-01-07T17:39:50.440Z,1.80
2023-01-07T17:42:42.252Z,1.80
2023-01-07T17:45:16.326Z,1.77
2023-01-07T17:47:46.309Z,1.67
2023-01-07T17:50:15.704Z,2.40
2023-01-07T17:52:46.194Z,1.40
2023-01-07T17:55:21.248Z,1.43
2023-01-07T17:57:49.184Z,1.33
2023-01-07T18:00:19.814Z,1.63
2023-01-07T18:02:50.047Z,1.63
2023-01-07T18:05:20.038Z,1.90
2023-01-07T18:07:48.652Z,1.77
2023-01-07T18:10:18.442Z,1.67
2023-01-07T18:12:45.819Z,1.53
2023-01-07T18:15:20.630Z,1.50
2023-01-07T18:17:51.186Z,1.53
2023-01-07T18:20:20.476Z,2.07
2023-01-07T18:22:49.580Z,1.70
2023-01-07T18:25:20.173Z,1.50
2023-01-07T18:27:48.990Z,1.97
2023-01-07T18:30:19.158Z,1.67
2023-01-07T18:32:48.201Z,2.10
2023-01-07T18:35:19.019Z,1.30
2023-01-07T18:37:49.691Z,2.37
2023-01-07T18:40:17.761Z,1.97
2023-01-07T18:42:45.705Z,1.83
2023-01-07T18:45:14.211Z,1.80
2023-01-07T18:47:42.885Z,1.53
2023-01-07T18:50:10.913Z,2.30
2023-01-07T18:52:40.746Z,2.10
2023-01-07T18:55:10.348Z,1.90
2023-01-07T18:57:38.507Z,2.10
2023-01-07T19:00:08.020Z,1.90
2023-01-07T19:02:36.175Z,1.60
2023-01-07T19:05:04.286Z,2.00
2023-01-07T19:07:32.198Z,1.80
2023-01-07T19:10:01.399Z,1.60
2023-01-07T19:12:29.465Z,2.33
2023-01-07T19:14:57.369Z,2.00
2023-01-07T19:17:25.291Z,1.60
2023-01-07T19:19:54.672Z,1.67
2023-01-07T19:22:22.526Z,1.40
2023-01-07T19:24:50.511Z,1.57
2023-01-07T19:27:19.701Z,1.70
2023-01-07T19:29:47.573Z,1.93
2023-01-07T19:32:15.455Z,1.80
2023-01-07T19:34:43.342Z,1.50
2023-01-07T19:37:11.181Z,1.70
2023-01-07T19:39:39.924Z,1.70
2023-01-07T19:42:09.833Z,1.67
2023-01-07T19:44:39.108Z,1.63
2023-01-07T19:47:06.991Z,1.70
2023-01-07T19:49:36.051Z,2.00
2023-01-07T19:52:03.936Z,1.60
2023-01-07T19:54:31.805Z,1.87
2023-01-07T19:56:59.666Z,2.00
2023-01-07T19:59:27.820Z,1.40
2023-01-07T20:01:57.093Z,1.90
2023-01-07T20:04:27.222Z,2.20
2023-01-07T20:06:55.585Z,1.97
2023-01-07T20:09:23.515Z,2.13
2023-01-07T20:11:51.359Z,2.00
2023-01-07T20:14:19.246Z,2.13
2023-01-07T20:16:47.167Z,2.10
2023-01-07T20:19:16.452Z,2.60
2023-01-07T20:21:44.271Z,1.80
2023-01-07T20:24:13.820Z,2.03
2023-01-07T20:26:41.872Z,1.87
2023-01-07T20:29:09.761Z,2.47
2023-01-07T20:31:37.701Z,2.47
2023-01-07T20:34:05.744Z,2.43
2023-01-07T20:36:34.967Z,2.27
2023-01-07T20:39:05.849Z,2.00
2023-01-07T20:41:35.249Z,2.10
2023-01-07T20:44:04.715Z,1.80
2023-01-07T20:46:34.558Z,2.00
2023-01-07T20:49:02.730Z,2.20
2023-01-07T20:51:30.985Z,2.20
2023-01-07T20:54:00.540Z,2.10
2023-01-07T20:56:32.531Z,1.97
2023-01-07T20:59:00.834Z,2.03
2023-01-07T21:01:29.539Z,2.17
2023-01-07T21:03:57.707Z,2.20
2023-01-07T21:06:25.961Z,1.80
2023-01-07T21:08:54.036Z,2.33
2023-01-07T21:11:24.755Z,2.40
2023-01-07T21:13:56.949Z,2.93
2023-01-07T21:16:25.758Z,2.23
2023-01-07T21:18:53.727Z,2.30
2023-01-07T21:21:24.939Z,1.97
2023-01-07T21:23:53.701Z,2.30
2023-01-07T21:26:23.815Z,2.20
2023-01-07T21:28:55.705Z,2.43
2023-01-07T21:31:25.122Z,2.40
2023-01-07T21:33:56.311Z,2.10
2023-01-07T21:36:25.091Z,2.10
2023-01-07T21:38:54.979Z,2.33
2023-01-07T21:41:24.974Z,2.07
2023-01-07T21:43:53.043Z,2.50
2023-01-07T21:46:22.592Z,2.40
2023-01-07T21:48:51.734Z,2.17
2023-01-07T21:51:22.468Z,2.50
2023-01-07T21:53:52.343Z,2.10
2023-01-07T21:56:20.610Z,2.60
2023-01-07T21:58:50.141Z,2.37
2023-01-07T22:01:19.967Z,2.53
2023-01-07T22:03:50.102Z,2.37
2023-01-07T22:06:20.964Z,2.70
2023-01-07T22:08:49.213Z,2.00
2023-01-07T22:11:18.928Z,2.70
2023-01-07T22:13:51.917Z,2.50
2023-01-07T22:16:20.159Z,2.40
2023-01-07T22:18:48.622Z,2.70
2023-01-07T22:21:17.093Z,2.23
2023-01-07T22:23:45.850Z,2.23
2023-01-07T22:26:14.771Z,2.53
2023-01-07T22:28:43.061Z,2.33
2023-01-07T22:31:17.094Z,2.70
2023-01-07T22:33:44.993Z,2.43
2023-01-07T22:36:15.228Z,2.03
2023-01-07T22:38:43.253Z,2.30
2023-01-07T22:41:12.330Z,2.20
2023-01-07T22:43:40.631Z,2.57
2023-01-07T22:46:11.796Z,1.90
2023-01-07T22:48:41.082Z,2.87
2023-01-07T22:51:13.136Z,2.30
2023-01-07T22:53:41.026Z,2.90
2023-01-07T22:56:09.234Z,2.13
2023-01-07T22:58:37.096Z,2.13
2023-01-07T23:01:10.999Z,2.30
2023-01-07T23:03:41.236Z,3.17
2023-01-07T23:06:09.800Z,2.57
2023-01-07T23:08:37.937Z,2.53
2023-01-07T23:11:06.759Z,2.30
2023-01-07T23:13:35.023Z,2.83
2023-01-07T23:16:03.818Z,2.43
2023-01-07T23:18:32.471Z,2.50
2023-01-07T23:21:04.647Z,2.63
2023-01-07T23:23:32.493Z,2.40
2023-01-07T23:26:00.387Z,2.63
2023-01-07T23:28:28.277Z,2.40
2023-01-07T23:30:56.179Z,2.77
2023-01-07T23:33:24.008Z,2.27
2023-01-07T23:35:51.868Z,2.13
2023-01-07T23:38:21.262Z,2.77
2023-01-07T23:40:59.911Z,2.63
2023-01-07T23:43:27.806Z,2.40
2023-01-07T23:45:58.525Z,2.27
2023-01-07T23:48:27.254Z,2.73
2023-01-07T23:50:55.483Z,2.60
2023-01-07T23:53:25.962Z,2.50
2023-01-07T23:55:54.458Z,2.37
2023-01-07T23:58:23.554Z,2.70
